createdAt,value
2019-02-22T00:00:01.170Z,0.3
2019-02-22T00:05:02.163Z,0.2
2019-02-22T00:15:01.129Z,0.2
2019-02-22T00:20:01.049Z,0.2
2019-02-22T00:30:01.059Z,0.2
2019-02-22T00:45:06.125Z,0.2
2019-02-22T01:00:01.143Z,0.2
2019-02-22T01:15:01.249Z,0.2
2019-02-22T01:25:01.323Z,0.2
2019-02-22T01:30:01.108Z,0.3
2019-02-22T01:35:01.165Z,0.3
2019-02-22T01:40:01.095Z,0.3
2019-02-22T01:45:01.163Z,0.3
2019-02-22T01:55:01.073Z,0.3
2019-02-22T02:00:01.042Z,0.3
2019-02-22T02:05:02.399Z,0.3
2019-02-22T02:10:01.082Z,0.3
2019-02-22T02:15:01.175Z,0.2
2019-02-22T02:30:01.282Z,0.2
2019-02-22T02:35:01.280Z,0.2
2019-02-22T02:45:01.156Z,0.2
2019-02-22T03:00:02.253Z,0.2
2019-02-22T03:15:01.158Z,0.2
2019-02-22T03:30:01.166Z,0.1
2019-02-22T03:45:01.178Z,0.1
2019-02-22T04:00:01.183Z,0.1
2019-02-22T04:15:02.455Z,0.1
2019-02-22T04:30:01.174Z,0.1
2019-02-22T04:40:01.279Z,0.1
2019-02-22T04:45:01.138Z,0.1
2019-02-22T05:00:01.244Z,0.2
2019-02-22T05:15:13.328Z,0.2
2019-02-22T05:25:01.217Z,0.2
2019-02-22T05:30:01.139Z,0.2
2019-02-22T05:40:01.198Z,0.1
2019-02-22T05:45:01.266Z,0.1
2019-02-22T06:00:01.225Z,0.1
2019-02-22T06:10:02.571Z,0.1
2019-02-22T06:15:01.330Z,0.1
2019-02-22T06:30:01.314Z,0.2
2019-02-22T06:45:01.269Z,0.2
2019-02-22T07:00:01.275Z,0.5
2019-02-22T07:10:01.226Z,0.8
2019-02-22T07:15:01.571Z,0.8
2019-02-22T07:20:01.199Z,0.8
2019-02-22T07:25:01.253Z,0.8
2019-02-22T07:30:01.192Z,1.0
2019-02-22T07:35:01.321Z,0.9
2019-02-22T07:40:01.217Z,0.8
2019-02-22T07:45:01.258Z,0.8
2019-02-22T07:50:01.206Z,0.7
2019-02-22T07:55:01.270Z,0.7
2019-02-22T08:00:01.202Z,0.5
2019-02-22T08:05:01.338Z,0.4
2019-02-22T08:10:01.331Z,0.3
2019-02-22T08:15:01.333Z,0.3
2019-02-22T08:30:01.316Z,0.4
2019-02-22T08:45:01.239Z,0.4
2019-02-22T08:50:01.181Z,0.5
2019-02-22T08:55:01.294Z,0.4
2019-02-22T09:00:01.180Z,0.6
2019-02-22T09:05:01.250Z,0.6
2019-02-22T09:10:01.288Z,0.7
2019-02-22T09:15:01.454Z,0.7
2019-02-22T09:20:01.215Z,1.0
2019-02-22T09:25:01.294Z,1.1
2019-02-22T09:30:01.215Z,1.4
2019-02-22T09:35:01.282Z,1.3
2019-02-22T09:45:06.262Z,1.2
2019-02-22T09:50:01.218Z,1.1
2019-02-22T09:55:01.368Z,1.1
2019-02-22T10:00:01.304Z,1.3
2019-02-22T10:05:01.265Z,1.1
2019-02-22T10:10:01.197Z,1.3
2019-02-22T10:15:01.406Z,1.1
2019-02-22T10:20:02.364Z,1.0
2019-02-22T10:25:01.319Z,0.7
2019-02-22T10:30:01.393Z,0.8
2019-02-22T10:35:01.270Z,0.8
2019-02-22T10:40:01.203Z,0.9
2019-02-22T10:45:01.228Z,1.3
2019-02-22T10:50:01.206Z,1.5
2019-02-22T11:00:01.294Z,1.6
2019-02-22T11:05:01.273Z,1.5
2019-02-22T11:10:01.353Z,1.3
2019-02-22T11:15:01.345Z,1.1
2019-02-22T11:20:01.212Z,1.0
2019-02-22T11:25:01.316Z,0.8
2019-02-22T11:30:06.227Z,0.8
2019-02-22T11:35:01.345Z,0.7
2019-02-22T11:40:01.251Z,0.7
2019-02-22T11:45:01.285Z,0.4
2019-02-22T11:50:01.213Z,0.3
2019-02-22T11:55:01.291Z,0.3
2019-02-22T12:00:01.228Z,0.1
2019-02-22T12:20:00.676Z,0.0
2019-02-22T12:25:00.772Z,0.4
2019-02-22T12:30:00.526Z,0.3
2019-02-22T12:45:03.892Z,0.4
2019-02-22T12:50:00.691Z,0.4
2019-02-22T12:55:00.642Z,0.6
2019-02-22T13:00:00.758Z,0.5
2019-02-22T13:05:00.703Z,0.5
2019-02-22T13:10:00.639Z,0.6
2019-02-22T13:15:00.779Z,0.5
2019-02-22T13:25:00.901Z,0.5
2019-02-22T13:30:00.664Z,0.6
2019-02-22T13:35:00.849Z,0.8
2019-02-22T13:40:00.740Z,0.9
2019-02-22T13:45:00.691Z,0.9
2019-02-22T13:55:00.927Z,0.9
2019-02-22T14:00:02.246Z,0.7
2019-02-22T14:05:00.670Z,0.7
2019-02-22T14:10:00.643Z,0.6
2019-02-22T14:15:00.699Z,0.8
2019-02-22T14:20:00.644Z,0.7
2019-02-22T14:25:01.330Z,1.0
2019-02-22T14:30:00.746Z,1.2
2019-02-22T14:35:00.672Z,1.6
2019-02-22T14:40:04.256Z,2.1
2019-02-22T14:45:02.253Z,2.6
2019-02-22T14:55:00.904Z,2.7
2019-02-22T15:00:00.625Z,2.4
2019-02-22T15:05:00.710Z,2.1
2019-02-22T15:10:00.646Z,1.9
2019-02-22T15:15:01.290Z,2.0
2019-02-22T15:20:00.758Z,1.7
2019-02-22T15:25:00.706Z,1.7
2019-02-22T15:30:00.779Z,1.5
2019-02-22T15:35:00.733Z,1.4
2019-02-22T15:40:01.100Z,1.2
2019-02-22T15:45:00.690Z,1.1
2019-02-22T15:50:00.574Z,1.2
2019-02-22T15:55:00.632Z,1.3
2019-02-22T16:00:01.203Z,1.3
2019-02-22T16:05:01.558Z,1.4
2019-02-22T16:10:00.804Z,1.5
2019-02-22T16:15:00.701Z,1.3
2019-02-22T16:20:00.781Z,1.5
2019-02-22T16:25:01.380Z,1.6
2019-02-22T16:30:00.647Z,1.6
2019-02-22T16:35:00.721Z,1.7
2019-02-22T16:40:00.659Z,1.9
2019-02-22T16:45:00.905Z,1.8
2019-02-22T16:50:00.646Z,1.7
2019-02-22T17:00:00.588Z,1.6
2019-02-22T17:05:00.724Z,1.5
2019-02-22T17:10:00.606Z,1.5
2019-02-22T17:15:00.718Z,1.4
2019-02-22T17:20:00.805Z,1.4
2019-02-22T17:25:00.682Z,1.3
2019-02-22T17:30:00.732Z,1.3
2019-02-22T17:35:00.648Z,1.3
2019-02-22T17:40:00.585Z,1.3
2019-02-22T17:45:00.879Z,1.3
2019-02-22T17:50:02.519Z,1.5
2019-02-22T17:55:01.700Z,1.5
2019-02-22T18:00:01.300Z,1.6
2019-02-22T18:05:00.681Z,1.6
2019-02-22T18:10:00.674Z,1.6
2019-02-22T18:15:00.836Z,1.5
2019-02-22T18:20:00.734Z,1.3
2019-02-22T18:25:00.743Z,1.0
2019-02-22T18:30:00.793Z,1.0
2019-02-22T18:35:00.667Z,0.8
2019-02-22T18:40:00.620Z,0.8
2019-02-22T18:45:00.827Z,0.7
2019-02-22T18:50:00.640Z,0.9
2019-02-22T18:55:00.780Z,0.7
2019-02-22T19:00:00.738Z,0.8
2019-02-22T19:05:00.767Z,0.8
2019-02-22T19:10:00.626Z,0.8
2019-02-22T19:15:00.926Z,0.8
2019-02-22T19:20:00.755Z,0.9
2019-02-22T19:25:00.784Z,0.9
2019-02-22T19:30:00.683Z,0.7
2019-02-22T19:40:00.777Z,0.8
2019-02-22T19:45:00.671Z,0.7
2019-02-22T19:55:00.904Z,0.7
2019-02-22T20:00:00.687Z,0.8
2019-02-22T20:15:00.713Z,0.7
2019-02-22T20:20:00.686Z,0.7
2019-02-22T20:25:00.863Z,0.6
2019-02-22T20:30:00.670Z,0.6
2019-02-22T20:35:00.729Z,0.5
2019-02-22T20:45:00.696Z,0.6
2019-02-22T20:55:00.695Z,0.9
2019-02-22T21:00:00.671Z,0.8
2019-02-22T21:10:00.831Z,0.9
2019-02-22T21:15:00.699Z,0.8
2019-02-22T21:20:01.010Z,0.6
2019-02-22T21:25:00.766Z,0.6
2019-02-22T21:30:00.885Z,0.5
2019-02-22T21:40:01.372Z,0.5
2019-02-22T21:45:00.714Z,0.5
2019-02-22T21:50:00.628Z,0.4
2019-02-22T21:55:00.712Z,0.4
2019-02-22T22:00:00.650Z,0.4
2019-02-22T22:10:02.610Z,0.6
2019-02-22T22:15:00.865Z,0.7
2019-02-22T22:20:00.860Z,0.8
2019-02-22T22:25:01.128Z,0.9
2019-02-22T22:30:00.795Z,0.9
2019-02-22T22:35:00.770Z,0.8
2019-02-22T22:40:00.811Z,0.8
2019-02-22T22:45:00.749Z,0.7
2019-02-22T22:50:00.742Z,0.7
2019-02-22T22:55:00.981Z,0.7
2019-02-22T23:00:00.717Z,0.8
2019-02-22T23:05:00.819Z,0.8
2019-02-22T23:10:00.775Z,0.8
2019-02-22T23:15:01.457Z,0.8
2019-02-22T23:20:00.711Z,0.7
2019-02-22T23:25:01.755Z,0.7
2019-02-22T23:30:00.698Z,0.7
2019-02-22T23:40:00.672Z,0.8
2019-02-22T23:45:00.798Z,0.8
2019-02-22T23:50:00.656Z,0.8
